Time;durP1;ratioP1;P1;durP2;ratioP2;P2;SDS_P1;SDS_P2;PMS_P1;PMS_P2;Temp;Humidity;BMP_temperature;BMP_pressure;BME280_temperature;BME280_humidity;BME280_pressure;Samples;Min_cycle;Max_cycle;Signal;HPM_P1;HPM_P2
2021/07/14 17:36:19;;;;;;;34.90;15.48;;;;;;;;;;6206167;22;20016;31
2021/07/14 17:39:03;;;;;;;42.15;15.82;;;;;;;;;;5035347;28;36942;-81
2021/07/14 17:41:44;;;;;;;30.88;14.38;;;;;;;;;;5061582;28;47554;-80
2021/07/14 17:44:27;;;;;;;44.10;16.10;;;;;;;;;;5049452;28;39841;-81
2021/07/14 17:52:06;;;;;;;38.97;15.77;;;;;;;;;;5289249;22;20035;-79
2021/07/14 17:55:00;;;;;;;36.20;14.13;;;;;;;;;;5095463;28;38247;-79
2021/07/14 17:57:27;;;;;;;43.90;15.68;;;;;;;;;;5082450;28;40253;-80
2021/07/14 18:00:05;;;;;;;35.05;13.52;;;;;;;;;;5107783;27;39891;-79
2021/07/14 18:02:32;;;;;;;48.47;16.42;;;;;;;;;;5089568;28;48385;-82
2021/07/14 18:04:59;;;;;;;41.10;15.23;;;;;;;;;;5073101;28;39942;-79
2021/07/14 18:07:26;;;;;;;37.63;13.80;;;;;;;;;;5099443;27;40720;-79
2021/07/14 18:09:53;;;;;;;37.25;14.20;;;;;;;;;;5085736;28;39275;-80
2021/07/14 18:12:27;;;;;;;35.92;14.70;;;;;;;;;;5088425;27;38563;-79
2021/07/14 18:14:56;;;;;;;38.35;15.25;;;;;;;;;;5089855;28;39047;-79
2021/07/14 18:17:35;;;;;;;31.45;13.93;;;;;;;;;;5086513;28;39377;-81
2021/07/14 18:20:02;;;;;;;37.78;14.82;;;;;;;;;;5101762;28;39500;-80
2021/07/14 18:22:29;;;;;;;34.22;15.50;;;;;;;;;;5070725;28;37372;-80
2021/07/14 18:24:56;;;;;;;41.70;15.82;;;;;;;;;;5066628;28;39762;-79
2021/07/14 18:27:26;;;;;;;35.28;15.00;;;;;;;;;;5077297;28;40118;-79
2021/07/14 18:29:52;;;;;;;41.15;14.95;;;;;;;;;;5069659;28;38898;-79
2021/07/14 18:32:21;;;;;;;34.65;14.10;;;;;;;;;;5080537;28;38114;-79
2021/07/14 18:34:48;;;;;;;35.70;14.32;;;;;;;;;;5067225;28;39012;-79
2021/07/14 18:37:15;;;;;;;34.75;14.55;;;;;;;;;;5075053;28;38775;-80
2021/07/14 18:39:44;;;;;;;38.75;15.20;;;;;;;;;;5073436;27;38430;-80
2021/07/14 18:42:12;;;;;;;37.75;15.80;;;;;;;;;;5610672;22;36773;-80
2021/07/14 18:44:52;;;;;;;33.03;15.27;;;;;;;;;;5075726;28;40198;-78
2021/07/14 18:47:20;;;;;;;36.95;15.77;;;;;;;;;;5057896;28;37617;-78
2021/07/14 18:49:50;;;;;;;37.83;14.30;;;;;;;;;;5063427;28;39209;-78
2021/07/14 18:52:17;;;;;;;33.50;14.85;;;;;;;;;;5070908;28;37808;-78
2021/07/14 18:54:44;;;;;;;33.35;14.50;;;;;;;;;;5077509;28;40359;-79
2021/07/14 18:57:10;;;;;;;34.17;15.95;;;;;;;;;;5073185;28;39230;-79
2021/07/14 18:59:37;;;;;;;37.60;16.20;;;;;;;;;;5079510;28;39028;-79
2021/07/14 19:02:03;;;;;;;31.38;14.48;;;;;;;;;;5074390;28;36747;-79
2021/07/14 19:04:36;;;;;;;33.53;15.10;;;;;;;;;;5074423;28;40766;-80
2021/07/14 19:07:12;;;;;;;36.70;14.05;;;;;;;;;;5076942;28;39460;-79
2021/07/14 19:09:43;;;;;;;27.85;14.25;;;;;;;;;;5080893;28;37685;-79
2021/07/14 19:12:22;;;;;;;35.05;16.20;;;;;;;;;;5094263;28;36025;-81
2021/07/14 19:14:50;;;;;;;29.75;14.93;;;;;;;;;;5778323;22;40761;-80
2021/07/14 19:17:17;;;;;;;35.03;15.32;;;;;;;;;;5089504;28;39160;-80
2021/07/14 19:19:43;;;;;;;32.20;15.70;;;;;;;;;;5088340;28;39052;-79
2021/07/14 19:22:10;;;;;;;31.92;14.07;;;;;;;;;;5080645;28;37429;-79
2021/07/14 19:24:45;;;;;;;35.50;15.57;;;;;;;;;;5086258;28;39635;-79
2021/07/14 19:27:12;;;;;;;26.77;14.20;;;;;;;;;;5058038;28;37930;-80
2021/07/14 19:29:38;;;;;;;33.65;15.63;;;;;;;;;;5051121;28;37005;-79
2021/07/14 19:32:10;;;;;;;31.20;14.80;;;;;;;;;;5163905;22;36905;-80
2021/07/14 19:34:41;;;;;;;29.30;15.02;;;;;;;;;;5212056;22;39070;-79
2021/07/14 19:37:07;;;;;;;34.78;14.45;;;;;;;;;;5075408;28;38688;-80
2021/07/14 19:39:37;;;;;;;38.47;14.80;;;;;;;;;;5086922;28;38867;-80
2021/07/14 19:42:10;;;;;;;36.80;14.70;;;;;;;;;;5086564;27;38070;-81
2021/07/14 19:44:37;;;;;;;30.58;14.60;;;;;;;;;;5083796;28;39574;-80
2021/07/14 19:47:03;;;;;;;32.25;14.52;;;;;;;;;;5072934;28;39414;-81
2021/07/14 19:49:30;;;;;;;35.38;15.10;;;;;;;;;;5088223;28;40022;-80
2021/07/14 19:51:58;;;;;;;42.83;16.10;;;;;;;;;;5081902;28;37464;-79
2021/07/14 19:54:26;;;;;;;33.70;16.00;;;;;;;;;;5071771;28;40577;-79
2021/07/14 19:56:53;;;;;;;31.60;14.60;;;;;;;;;;5084597;28;38384;-79
2021/07/14 19:59:23;;;;;;;27.90;12.90;;;;;;;;;;5085319;28;40203;-80
2021/07/14 20:01:50;;;;;;;28.08;14.05;;;;;;;;;;5075509;28;37573;-78
2021/07/14 20:07:05;;;;;;;37.38;14.82;;;;;;;;;;5072530;28;20048;-78
2021/07/14 20:09:37;;;;;;;37.33;16.85;;;;;;;;;;5068882;28;47194;-78
2021/07/14 20:12:03;;;;;;;43.42;16.77;;;;;;;;;;5067557;28;36311;-80
2021/07/14 20:14:30;;;;;;;38.05;16.40;;;;;;;;;;5077925;28;38085;-78
2021/07/14 20:16:56;;;;;;;42.80;16.85;;;;;;;;;;5063614;28;39591;-79
2021/07/14 20:19:29;;;;;;;37.28;16.63;;;;;;;;;;5064884;28;40428;-79
2021/07/14 20:21:58;;;;;;;37.55;17.40;;;;;;;;;;5076730;28;38041;-79
2021/07/14 20:24:25;;;;;;;39.53;18.08;;;;;;;;;;5077490;28;40195;-78
2021/07/14 20:26:52;;;;;;;45.72;19.75;;;;;;;;;;5077344;28;39310;-79
2021/07/14 20:29:18;;;;;;;40.85;19.63;;;;;;;;;;5065156;28;37921;-79
2021/07/14 20:31:46;;;;;;;39.15;20.55;;;;;;;;;;5077600;28;36308;-78
2021/07/14 20:34:13;;;;;;;42.58;20.80;;;;;;;;;;5070342;28;38135;-78
2021/07/14 20:36:39;;;;;;;43.55;20.52;;;;;;;;;;5068106;28;39429;-79
2021/07/14 20:39:06;;;;;;;41.80;21.33;;;;;;;;;;5071694;28;37796;-79
2021/07/14 20:41:32;;;;;;;48.90;23.52;;;;;;;;;;5079797;28;38268;-79
2021/07/14 20:43:59;;;;;;;37.13;19.88;;;;;;;;;;5075001;28;40155;-79
2021/07/14 20:46:25;;;;;;;44.75;24.13;;;;;;;;;;5081208;28;40212;-79
2021/07/14 20:48:55;;;;;;;43.88;21.67;;;;;;;;;;5073177;28;38855;-77
2021/07/14 20:51:25;;;;;;;37.03;19.58;;;;;;;;;;5150423;22;36604;-79
2021/07/14 20:53:52;;;;;;;42.08;21.02;;;;;;;;;;5053069;28;40448;-80
2021/07/14 20:56:18;;;;;;;39.63;20.42;;;;;;;;;;5052132;28;38330;-80
2021/07/14 20:58:49;;;;;;;44.35;20.70;;;;;;;;;;5081128;28;36504;-79
2021/07/14 21:01:16;;;;;;;40.17;19.05;;;;;;;;;;5063883;28;36081;-81
2021/07/14 21:03:46;;;;;;;42.03;20.33;;;;;;;;;;5065980;28;38475;-79
2021/07/14 21:06:12;;;;;;;39.75;19.23;;;;;;;;;;5045995;28;37873;-79
2021/07/14 21:08:39;;;;;;;35.90;17.77;;;;;;;;;;5066506;28;37816;-79
2021/07/14 21:11:06;;;;;;;42.92;19.02;;;;;;;;;;5049365;28;35849;-79
2021/07/14 21:13:37;;;;;;;39.50;19.05;;;;;;;;;;5054501;28;38380;-79
2021/07/14 21:16:04;;;;;;;44.05;18.88;;;;;;;;;;5069512;28;40304;-80
2021/07/14 21:18:30;;;;;;;41.53;17.40;;;;;;;;;;5057523;28;37202;-79
2021/07/14 21:20:58;;;;;;;37.65;16.67;;;;;;;;;;5069032;28;39106;-80
2021/07/14 21:23:24;;;;;;;40.47;17.38;;;;;;;;;;5049887;28;38915;-80
2021/07/14 21:25:51;;;;;;;37.70;17.00;;;;;;;;;;5059687;28;37443;-78
2021/07/14 21:28:17;;;;;;;38.63;16.25;;;;;;;;;;5058853;28;39977;-80
2021/07/14 21:30:44;;;;;;;39.65;16.27;;;;;;;;;;5105914;22;38566;-80
2021/07/14 21:33:10;;;;;;;41.33;16.92;;;;;;;;;;5038443;28;38944;-79
2021/07/14 21:35:36;;;;;;;40.17;15.88;;;;;;;;;;5054700;28;40313;-79
2021/07/14 21:38:03;;;;;;;46.40;16.10;;;;;;;;;;5030378;28;39455;-80
2021/07/14 21:40:31;;;;;;;37.95;15.55;;;;;;;;;;5057877;28;38749;-80
2021/07/14 21:43:16;;;;;;;37.25;15.70;;;;;;;;;;5058281;28;37893;-79
2021/07/14 21:45:43;;;;;;;38.67;15.75;;;;;;;;;;5057479;28;47405;-79
2021/07/14 21:48:10;;;;;;;41.50;14.90;;;;;;;;;;5050421;28;39998;-80
2021/07/14 21:50:38;;;;;;;36.10;15.55;;;;;;;;;;5055203;28;38503;-79
2021/07/14 21:53:07;;;;;;;36.53;15.05;;;;;;;;;;5039437;28;40133;-79
2021/07/14 21:55:34;;;;;;;36.03;15.88;;;;;;;;;;5047517;28;38904;-79
2021/07/14 21:58:00;;;;;;;35.42;14.77;;;;;;;;;;5049369;28;38430;-79
2021/07/14 22:00:30;;;;;;;28.63;14.68;;;;;;;;;;5047400;28;37942;-79
2021/07/14 22:02:58;;;;;;;36.90;15.20;;;;;;;;;;5044907;28;39640;-79
2021/07/14 22:05:26;;;;;;;33.83;15.07;;;;;;;;;;5040652;28;39418;-79
2021/07/14 22:07:56;;;;;;;42.65;15.93;;;;;;;;;;5035199;28;37743;-80
2021/07/14 22:10:24;;;;;;;35.85;15.77;;;;;;;;;;5039745;28;39383;-79
2021/07/14 22:12:51;;;;;;;34.55;15.05;;;;;;;;;;5043471;28;38339;-79
2021/07/14 22:15:19;;;;;;;35.00;13.25;;;;;;;;;;5049365;28;39127;-80
2021/07/14 22:17:49;;;;;;;34.60;13.90;;;;;;;;;;5049351;28;39782;-77
2021/07/14 22:20:20;;;;;;;31.75;14.43;;;;;;;;;;5035464;28;37770;-78
2021/07/14 22:22:57;;;;;;;32.08;14.85;;;;;;;;;;5036059;28;39278;-78
2021/07/14 22:25:26;;;;;;;43.03;15.82;;;;;;;;;;5038887;28;39667;-78
2021/07/14 22:27:53;;;;;;;35.08;16.40;;;;;;;;;;5043587;28;38593;-80
2021/07/14 22:30:22;;;;;;;39.28;15.88;;;;;;;;;;5037215;28;37270;-78
2021/07/14 22:32:48;;;;;;;37.08;15.38;;;;;;;;;;5025280;28;40918;-79
2021/07/14 22:35:16;;;;;;;37.28;16.10;;;;;;;;;;5036872;28;37499;-79
2021/07/14 22:37:44;;;;;;;34.63;16.15;;;;;;;;;;5047601;28;38591;-80
2021/07/14 22:40:12;;;;;;;36.17;15.32;;;;;;;;;;5031562;28;35923;-79
2021/07/14 22:42:41;;;;;;;38.40;15.13;;;;;;;;;;5044645;28;39167;-79
2021/07/14 22:45:15;;;;;;;41.72;15.25;;;;;;;;;;5023046;28;39291;-80
2021/07/14 22:47:43;;;;;;;36.00;15.95;;;;;;;;;;5056099;28;40090;-78
2021/07/14 22:50:13;;;;;;;32.17;15.00;;;;;;;;;;5034762;28;37066;-79
2021/07/14 22:52:41;;;;;;;31.85;14.57;;;;;;;;;;5033682;28;40295;-80
2021/07/14 22:55:12;;;;;;;29.23;14.48;;;;;;;;;;5022397;28;39820;-79
2021/07/14 22:57:41;;;;;;;31.92;14.07;;;;;;;;;;5059363;28;40160;-78
2021/07/14 23:00:09;;;;;;;35.22;14.82;;;;;;;;;;5055132;28;37387;-79
2021/07/14 23:02:42;;;;;;;32.05;15.07;;;;;;;;;;5044962;28;49269;-78
2021/07/14 23:05:08;;;;;;;30.30;15.60;;;;;;;;;;5041175;28;39362;-78
2021/07/14 23:07:35;;;;;;;33.38;15.02;;;;;;;;;;5042595;28;38640;-78
2021/07/14 23:10:02;;;;;;;33.28;14.88;;;;;;;;;;5038099;28;37338;-79
2021/07/14 23:12:28;;;;;;;34.70;15.77;;;;;;;;;;5043939;28;38031;-78
2021/07/14 23:14:55;;;;;;;32.80;15.00;;;;;;;;;;5032083;28;39284;-78
2021/07/14 23:17:21;;;;;;;34.10;13.02;;;;;;;;;;5057648;28;39092;-78
2021/07/14 23:19:47;;;;;;;32.60;15.02;;;;;;;;;;5044518;28;38820;-79
2021/07/14 23:22:14;;;;;;;34.53;14.65;;;;;;;;;;5039328;28;38633;-79
2021/07/14 23:24:54;;;;;;;30.05;14.88;;;;;;;;;;5041444;28;39331;-78
2021/07/14 23:27:21;;;;;;;37.42;15.70;;;;;;;;;;5049112;28;39019;-78
2021/07/14 23:29:53;;;;;;;34.50;15.45;;;;;;;;;;5037786;28;36414;-78
2021/07/14 23:32:23;;;;;;;41.53;16.80;;;;;;;;;;5038894;28;38685;-79
2021/07/14 23:34:50;;;;;;;38.45;15.85;;;;;;;;;;5036406;28;37379;-79
2021/07/14 23:37:19;;;;;;;29.30;15.70;;;;;;;;;;5043666;28;39981;-77
2021/07/14 23:39:45;;;;;;;33.75;15.45;;;;;;;;;;5038727;28;35920;-78
2021/07/14 23:42:12;;;;;;;37.35;15.07;;;;;;;;;;5045680;28;40189;-78
2021/07/14 23:44:44;;;;;;;44.58;17.02;;;;;;;;;;5031771;28;39386;-79
2021/07/14 23:47:10;;;;;;;32.80;14.73;;;;;;;;;;5038052;28;38247;-79
2021/07/14 23:49:36;;;;;;;39.00;15.27;;;;;;;;;;5045680;28;37065;-78
2021/07/14 23:52:12;;;;;;;38.33;16.30;;;;;;;;;;5048976;28;41319;-79
2021/07/14 23:54:48;;;;;;;40.65;16.20;;;;;;;;;;5047164;28;39918;-79
2021/07/14 23:57:14;;;;;;;27.67;13.52;;;;;;;;;;5039829;28;37678;-79
2021/07/14 23:59:41;;;;;;;33.10;15.77;;;;;;;;;;5038314;28;38216;-77
